createdAt,value
2023-01-17T00:00:14.830Z,1.00
2023-01-17T00:00:37.676Z,1.00
2023-01-17T00:01:06.105Z,1.00
2023-01-17T00:01:34.317Z,1.00
2023-01-17T00:01:57.196Z,1.00
2023-01-17T00:02:20.056Z,1.00
2023-01-17T00:02:43.054Z,1.00
2023-01-17T00:03:06.424Z,1.00
2023-01-17T00:03:29.190Z,1.00
2023-01-17T00:04:10.859Z,1.00
2023-01-17T00:04:52.286Z,1.00
2023-01-17T00:05:35.244Z,1.00
2023-01-17T00:06:16.805Z,1.00
2023-01-17T00:06:58.409Z,1.00
2023-01-17T00:07:40.670Z,1.00
2023-01-17T00:08:22.125Z,1.00
2023-01-17T00:09:03.732Z,1.00
2023-01-17T00:09:44.827Z,1.00
2023-01-17T00:10:10.544Z,1.00
2023-01-17T00:10:33.412Z,1.00
2023-01-17T00:10:58.295Z,1.00
2023-01-17T00:11:21.121Z,1.00
2023-01-17T00:11:43.883Z,1.00
2023-01-17T00:12:07.444Z,1.00
2023-01-17T00:12:31.048Z,1.00
2023-01-17T00:12:54.735Z,1.00
2023-01-17T00:13:17.639Z,1.00
2023-01-17T00:13:41.003Z,1.00
2023-01-17T00:14:03.759Z,1.00
2023-01-17T00:14:28.904Z,1.00
2023-01-17T00:14:52.770Z,1.00
2023-01-17T00:15:20.031Z,1.00
2023-01-17T00:15:42.981Z,1.00
2023-01-17T00:16:06.974Z,1.00
2023-01-17T00:16:29.747Z,1.00
2023-01-17T00:16:53.287Z,1.00
2023-01-17T00:17:16.002Z,1.00
2023-01-17T00:17:41.135Z,1.00
2023-01-17T00:18:04.004Z,1.00
2023-01-17T00:18:26.728Z,1.00
2023-01-17T00:19:09.449Z,1.00
2023-01-17T00:19:50.825Z,1.00
2023-01-17T00:20:33.770Z,1.00
2023-01-17T00:21:15.395Z,1.00
2023-01-17T00:21:53.775Z,1.00
2023-01-17T00:22:39.791Z,1.00
2023-01-17T00:23:25.692Z,1.00
2023-01-17T00:24:07.088Z,1.00
2023-01-17T00:24:50.250Z,1.00
2023-01-17T00:25:36.607Z,1.00
2023-01-17T00:26:05.397Z,1.00
2023-01-17T00:26:28.242Z,1.00
2023-01-17T00:27:09.942Z,1.00
2023-01-17T00:27:32.728Z,1.00
2023-01-17T00:27:55.397Z,1.00
2023-01-17T00:28:18.098Z,1.00
2023-01-17T00:28:41.538Z,1.00
2023-01-17T00:29:04.189Z,1.00
2023-01-17T00:29:26.936Z,99.90
2023-01-17T00:29:49.618Z,1.00
2023-01-17T00:30:13.288Z,99.90
2023-01-17T00:30:36.010Z,99.90
2023-01-17T00:30:58.761Z,99.90
2023-01-17T00:31:21.542Z,99.90
2023-01-17T00:31:44.350Z,99.90
2023-01-17T00:32:07.112Z,99.90
2023-01-17T00:32:29.889Z,99.90
2023-01-17T00:32:52.597Z,99.90
2023-01-17T00:33:15.327Z,99.90
2023-01-17T00:33:38.091Z,99.90
2023-01-17T00:34:00.820Z,99.90
2023-01-17T00:34:23.364Z,99.90
2023-01-17T00:34:46.087Z,51.70
2023-01-17T00:35:09.540Z,51.10
2023-01-17T00:35:33.618Z,63.80
2023-01-17T00:35:56.976Z,93.60
2023-01-17T00:36:19.683Z,99.90
2023-01-17T00:36:42.372Z,99.90
2023-01-17T00:37:05.114Z,99.90
2023-01-17T00:37:27.920Z,99.90
2023-01-17T00:37:58.832Z,99.90
2023-01-17T00:38:22.237Z,99.90
2023-01-17T00:38:44.976Z,99.90
2023-01-17T00:39:07.630Z,99.90
2023-01-17T00:39:30.335Z,99.90
2023-01-17T00:39:53.075Z,99.90
2023-01-17T00:40:16.055Z,99.90
2023-01-17T00:40:39.935Z,99.90
2023-01-17T00:41:02.893Z,99.90
2023-01-17T00:41:25.858Z,99.90
2023-01-17T00:41:48.579Z,99.90
2023-01-17T00:42:11.282Z,99.90
2023-01-17T00:42:34.072Z,99.90
2023-01-17T00:43:15.504Z,99.90
2023-01-17T00:43:56.989Z,99.90
2023-01-17T00:44:38.490Z,99.90
2023-01-17T00:45:20.124Z,99.90
2023-01-17T00:46:02.724Z,1.00
2023-01-17T00:46:44.390Z,99.90
2023-01-17T00:47:25.946Z,1.00
2023-01-17T00:48:07.104Z,1.00
2023-01-17T00:48:48.428Z,1.00
2023-01-17T00:49:29.981Z,1.00
2023-01-17T00:50:11.300Z,1.00
2023-01-17T00:50:55.506Z,1.00
2023-01-17T00:51:37.131Z,1.00
2023-01-17T00:52:18.474Z,1.00
2023-01-17T00:53:00.004Z,1.00
2023-01-17T00:53:42.104Z,1.00
2023-01-17T00:54:24.806Z,1.00
2023-01-17T00:55:06.476Z,1.00
2023-01-17T00:55:48.004Z,1.00
2023-01-17T00:56:29.625Z,1.00
2023-01-17T00:57:11.265Z,1.00
2023-01-17T00:57:52.877Z,1.00
2023-01-17T00:58:34.340Z,1.00
2023-01-17T00:59:15.829Z,1.00
2023-01-17T00:59:57.324Z,1.00
2023-01-17T01:00:38.980Z,1.00
2023-01-17T01:01:24.112Z,1.00
2023-01-17T01:02:06.112Z,1.00
2023-01-17T01:02:48.039Z,1.00
2023-01-17T01:03:30.590Z,1.00
2023-01-17T01:04:12.009Z,1.00
2023-01-17T01:04:53.297Z,1.00
2023-01-17T01:05:34.972Z,1.00
2023-01-17T01:06:18.038Z,1.00
2023-01-17T01:06:59.695Z,1.00
2023-01-17T01:07:41.293Z,1.00
2023-01-17T01:08:22.977Z,1.00
2023-01-17T01:09:04.820Z,1.00
2023-01-17T01:09:45.929Z,1.00
2023-01-17T01:10:29.035Z,1.00
2023-01-17T01:11:10.478Z,1.00
2023-01-17T01:11:51.862Z,1.00
2023-01-17T01:12:33.209Z,1.00
2023-01-17T01:13:14.875Z,1.00
2023-01-17T01:13:56.194Z,1.00
2023-01-17T01:14:37.968Z,1.00
2023-01-17T01:15:19.524Z,1.00
2023-01-17T01:16:01.098Z,1.00
2023-01-17T01:16:42.897Z,1.00
2023-01-17T01:17:26.909Z,1.00
2023-01-17T01:18:08.508Z,1.00
2023-01-17T01:18:50.055Z,1.00
2023-01-17T01:19:31.534Z,1.00
2023-01-17T01:20:12.789Z,1.00
2023-01-17T01:20:53.929Z,1.00
2023-01-17T01:21:36.611Z,1.00
2023-01-17T01:22:18.246Z,1.00
2023-01-17T01:22:59.558Z,1.00
2023-01-17T01:23:41.318Z,1.00
2023-01-17T01:24:22.988Z,1.00
2023-01-17T01:25:04.485Z,1.00
2023-01-17T01:25:46.208Z,1.00
2023-01-17T01:26:27.684Z,1.00
2023-01-17T01:27:09.290Z,1.00
2023-01-17T01:27:51.045Z,1.00
2023-01-17T01:28:33.702Z,1.00
2023-01-17T01:29:15.374Z,1.00
2023-01-17T01:29:56.602Z,1.00
2023-01-17T01:30:37.731Z,1.00
2023-01-17T01:31:19.381Z,1.00
2023-01-17T01:32:01.064Z,1.00
2023-01-17T01:32:42.494Z,1.00
2023-01-17T01:33:21.311Z,1.00
2023-01-17T01:33:44.185Z,99.90
2023-01-17T01:34:06.906Z,99.90
2023-01-17T01:34:29.659Z,99.90
2023-01-17T01:34:52.433Z,99.90
2023-01-17T01:35:15.457Z,99.90
2023-01-17T01:35:38.170Z,99.90
2023-01-17T01:36:00.979Z,99.90
2023-01-17T01:36:25.185Z,99.90
2023-01-17T01:36:47.920Z,99.90
2023-01-17T01:37:10.674Z,99.90
2023-01-17T01:37:33.374Z,99.90
2023-01-17T01:37:56.270Z,99.90
2023-01-17T01:38:19.045Z,99.90
2023-01-17T01:38:41.759Z,99.90
2023-01-17T01:39:04.542Z,99.90
2023-01-17T01:39:27.394Z,99.90
2023-01-17T01:39:50.159Z,99.90
2023-01-17T01:40:13.395Z,99.90
2023-01-17T01:40:41.274Z,82.50
2023-01-17T01:41:04.159Z,19.20
2023-01-17T01:41:26.967Z,8.50
2023-01-17T01:41:49.673Z,67.60
2023-01-17T01:42:15.564Z,98.00
2023-01-17T01:42:38.380Z,99.90
2023-01-17T01:43:05.794Z,99.90
2023-01-17T01:43:43.481Z,99.90
2023-01-17T01:44:21.049Z,1.00
2023-01-17T01:44:46.485Z,1.00
2023-01-17T01:45:16.034Z,1.00
2023-01-17T01:45:38.828Z,1.00
2023-01-17T01:46:01.695Z,1.00
2023-01-17T01:46:25.676Z,1.00
2023-01-17T01:46:48.491Z,5.80
2023-01-17T01:47:12.499Z,5.80
2023-01-17T01:47:36.184Z,31.40
2023-01-17T01:48:02.379Z,99.90
2023-01-17T01:48:34.842Z,99.90
2023-01-17T01:48:59.215Z,99.90
2023-01-17T01:49:24.828Z,99.90
2023-01-17T01:49:48.664Z,99.90
2023-01-17T01:50:11.950Z,99.90
2023-01-17T01:50:35.241Z,99.90
2023-01-17T01:50:58.789Z,99.90
2023-01-17T01:51:25.342Z,99.90
2023-01-17T01:51:49.848Z,99.90
2023-01-17T01:52:12.667Z,99.90
2023-01-17T01:52:36.029Z,99.90
2023-01-17T01:53:00.492Z,99.90
2023-01-17T01:53:23.269Z,99.90
2023-01-17T01:53:47.015Z,1.00
2023-01-17T01:54:12.505Z,1.00
2023-01-17T01:54:37.528Z,1.00
2023-01-17T01:55:01.397Z,1.00
2023-01-17T01:55:25.914Z,1.00
2023-01-17T01:55:49.512Z,1.00
2023-01-17T01:56:13.874Z,1.00
2023-01-17T01:56:36.657Z,1.00
2023-01-17T01:56:59.640Z,1.00
2023-01-17T01:57:24.567Z,1.00
2023-01-17T01:57:49.137Z,1.00
2023-01-17T01:58:13.775Z,1.00
2023-01-17T01:58:38.269Z,1.00
2023-01-17T01:59:01.555Z,1.00
2023-01-17T01:59:24.325Z,1.00
2023-01-17T01:59:49.635Z,1.00
2023-01-17T02:00:16.830Z,1.00
2023-01-17T02:00:41.113Z,1.00
2023-01-17T02:01:04.539Z,1.00
2023-01-17T02:01:27.499Z,1.00
2023-01-17T02:01:51.525Z,1.00
2023-01-17T02:02:14.332Z,1.00
2023-01-17T02:02:36.989Z,1.00
2023-01-17T02:03:02.576Z,1.00
2023-01-17T02:03:27.440Z,1.00
2023-01-17T02:03:50.295Z,1.00
2023-01-17T02:04:13.445Z,1.00
2023-01-17T02:04:36.185Z,1.00
2023-01-17T02:04:59.065Z,1.00
2023-01-17T02:05:25.306Z,1.00
2023-01-17T02:05:48.086Z,1.00
2023-01-17T02:06:19.577Z,1.00
2023-01-17T02:06:45.464Z,1.00
2023-01-17T02:07:10.524Z,1.00
2023-01-17T02:07:34.727Z,1.00
2023-01-17T02:07:59.773Z,1.00
2023-01-17T02:08:23.334Z,1.00
2023-01-17T02:08:46.090Z,1.00
2023-01-17T02:09:10.088Z,1.00
2023-01-17T02:09:32.816Z,1.00
2023-01-17T02:09:55.649Z,1.00
2023-01-17T02:10:18.535Z,1.00
2023-01-17T02:10:41.902Z,1.00
2023-01-17T02:11:04.809Z,1.00
2023-01-17T02:11:27.850Z,1.00
2023-01-17T02:11:50.665Z,1.00
2023-01-17T02:12:13.359Z,1.00
2023-01-17T02:12:36.129Z,1.00
2023-01-17T02:12:58.894Z,1.00
2023-01-17T02:13:24.164Z,1.00
2023-01-17T02:13:46.958Z,1.00
2023-01-17T02:14:14.395Z,1.00
2023-01-17T02:14:37.110Z,1.00
2023-01-17T02:14:59.944Z,1.00
2023-01-17T02:15:23.903Z,1.00
2023-01-17T02:15:52.702Z,1.00
2023-01-17T02:16:23.416Z,1.00
2023-01-17T02:16:52.823Z,1.00
2023-01-17T02:17:27.829Z,1.00
2023-01-17T02:17:53.728Z,1.00
2023-01-17T02:18:20.298Z,1.00
2023-01-17T02:18:48.803Z,1.00
2023-01-17T02:19:37.444Z,1.00
2023-01-17T02:20:41.606Z,1.00
2023-01-17T02:21:20.344Z,1.00
2023-01-17T02:21:45.289Z,1.00
2023-01-17T02:22:29.179Z,1.00
2023-01-17T02:23:14.652Z,1.00
2023-01-17T02:24:10.761Z,1.00
2023-01-17T02:24:59.265Z,1.00
2023-01-17T02:25:51.903Z,1.00
2023-01-17T02:26:44.986Z,1.00
2023-01-17T02:27:08.566Z,1.00
2023-01-17T02:27:35.931Z,1.00
2023-01-17T02:28:08.651Z,1.00
2023-01-17T02:28:39.826Z,1.00
2023-01-17T02:29:25.297Z,1.00
2023-01-17T02:30:17.659Z,1.00
2023-01-17T02:30:42.946Z,1.00
2023-01-17T02:31:07.011Z,1.00
2023-01-17T02:31:32.600Z,1.00
2023-01-17T02:31:56.897Z,1.00
2023-01-17T02:32:23.204Z,1.00
2023-01-17T02:32:50.995Z,1.00
2023-01-17T02:33:18.249Z,1.00
2023-01-17T02:33:44.791Z,1.00
2023-01-17T02:34:10.255Z,1.00
2023-01-17T02:34:35.012Z,1.00
2023-01-17T02:35:00.509Z,1.00
2023-01-17T02:35:29.055Z,1.00
2023-01-17T02:35:57.129Z,1.00
2023-01-17T02:36:22.823Z,1.00
2023-01-17T02:36:48.748Z,1.00
2023-01-17T02:37:14.933Z,1.00
2023-01-17T02:37:41.127Z,1.00
2023-01-17T02:38:09.307Z,1.00
2023-01-17T02:38:37.433Z,1.00
2023-01-17T02:39:02.683Z,1.00
2023-01-17T02:39:27.864Z,1.00
2023-01-17T02:39:54.486Z,1.00
2023-01-17T02:40:19.629Z,1.00
2023-01-17T02:40:44.904Z,1.00
2023-01-17T02:41:09.299Z,1.00
2023-01-17T02:41:35.076Z,1.00
2023-01-17T02:42:00.332Z,1.00
2023-01-17T02:42:26.759Z,1.00
2023-01-17T02:42:52.655Z,1.00
2023-01-17T02:43:16.596Z,1.00
2023-01-17T02:43:39.622Z,1.00
2023-01-17T02:44:02.488Z,1.00
2023-01-17T02:44:25.366Z,1.00
2023-01-17T02:44:48.529Z,1.00
2023-01-17T02:45:15.620Z,1.00
2023-01-17T02:45:38.388Z,1.00
2023-01-17T02:46:02.782Z,1.00
2023-01-17T02:46:25.618Z,1.00
2023-01-17T02:46:49.290Z,1.00
2023-01-17T02:47:22.099Z,1.00
2023-01-17T02:47:44.985Z,1.00
2023-01-17T02:48:08.288Z,1.00
2023-01-17T02:48:32.841Z,1.00
2023-01-17T02:48:55.652Z,1.00
2023-01-17T02:49:18.589Z,1.00
2023-01-17T02:49:41.319Z,1.00
2023-01-17T02:50:06.421Z,1.00
2023-01-17T02:50:33.024Z,1.00
2023-01-17T02:51:31.380Z,1.00
2023-01-17T02:52:07.751Z,1.00
2023-01-17T02:52:42.299Z,1.00
2023-01-17T02:53:17.629Z,1.00
2023-01-17T02:53:47.894Z,1.00
2023-01-17T02:54:32.975Z,1.00
2023-01-17T02:55:07.015Z,1.00
2023-01-17T02:55:37.368Z,1.00
2023-01-17T02:56:03.290Z,1.00
2023-01-17T02:56:39.527Z,1.00
2023-01-17T02:57:12.046Z,1.00
2023-01-17T02:57:57.122Z,1.00
2023-01-17T02:58:37.455Z,1.00
2023-01-17T02:59:07.013Z,1.00
2023-01-17T02:59:36.070Z,1.00
2023-01-17T03:00:01.537Z,1.00
2023-01-17T03:00:28.064Z,1.00
2023-01-17T03:00:56.583Z,1.00
2023-01-17T03:01:27.436Z,1.00
2023-01-17T03:01:57.325Z,1.00
2023-01-17T03:02:23.421Z,1.00
2023-01-17T03:02:50.610Z,1.00
2023-01-17T03:03:18.209Z,1.00
2023-01-17T03:03:44.389Z,1.00
2023-01-17T03:04:09.020Z,1.00
2023-01-17T03:04:34.591Z,1.00
2023-01-17T03:05:00.871Z,1.00
2023-01-17T03:05:26.194Z,1.00
2023-01-17T03:05:50.404Z,1.00
2023-01-17T03:06:14.573Z,1.00
2023-01-17T03:06:40.199Z,1.00
2023-01-17T03:07:05.363Z,1.00
2023-01-17T03:07:28.324Z,1.00
2023-01-17T03:07:51.184Z,1.00
2023-01-17T03:08:14.010Z,1.00
2023-01-17T03:08:36.837Z,1.00
2023-01-17T03:08:59.637Z,1.00
2023-01-17T03:09:22.470Z,1.00
2023-01-17T03:09:46.003Z,1.00
2023-01-17T03:10:10.393Z,1.00
2023-01-17T03:10:33.293Z,1.00
2023-01-17T03:10:57.120Z,1.00
2023-01-17T03:11:19.916Z,1.00
2023-01-17T03:11:42.799Z,1.00
2023-01-17T03:12:06.314Z,1.00
2023-01-17T03:12:30.474Z,1.00
2023-01-17T03:12:56.971Z,1.00
2023-01-17T03:13:19.770Z,1.00
2023-01-17T03:13:42.592Z,1.00
2023-01-17T03:14:05.336Z,1.00
2023-01-17T03:14:31.185Z,1.00
2023-01-17T03:14:53.934Z,1.00
2023-01-17T03:15:20.194Z,1.00
2023-01-17T03:15:42.887Z,1.00
2023-01-17T03:16:06.809Z,1.00
2023-01-17T03:16:32.828Z,1.00
2023-01-17T03:16:55.633Z,1.00
2023-01-17T03:17:18.451Z,1.00
2023-01-17T03:17:42.846Z,1.00
2023-01-17T03:18:07.684Z,1.00
2023-01-17T03:18:30.475Z,1.00
2023-01-17T03:18:54.290Z,1.00
2023-01-17T03:19:17.009Z,1.00
2023-01-17T03:19:39.763Z,1.00
2023-01-17T03:20:02.613Z,1.00
2023-01-17T03:20:25.447Z,1.00
2023-01-17T03:20:48.306Z,1.00
2023-01-17T03:21:11.087Z,1.00
2023-01-17T03:21:33.810Z,1.00
2023-01-17T03:21:59.697Z,1.00
2023-01-17T03:22:22.577Z,1.00
2023-01-17T03:22:45.355Z,1.00
2023-01-17T03:23:08.100Z,1.00
2023-01-17T03:23:30.805Z,1.00
2023-01-17T03:23:53.595Z,1.00
2023-01-17T03:24:16.494Z,1.00
2023-01-17T03:24:39.272Z,1.00
2023-01-17T03:25:02.005Z,1.00
2023-01-17T03:25:24.737Z,1.00
2023-01-17T03:25:47.494Z,1.00
2023-01-17T03:26:12.617Z,1.00
2023-01-17T03:26:35.410Z,1.00
2023-01-17T03:26:58.096Z,1.00
2023-01-17T03:27:20.813Z,1.00
2023-01-17T03:27:43.569Z,1.00
2023-01-17T03:28:06.555Z,1.00
2023-01-17T03:28:29.383Z,1.00
2023-01-17T03:28:52.156Z,1.00
2023-01-17T03:29:15.045Z,1.00
2023-01-17T03:29:37.824Z,1.00
2023-01-17T03:30:01.965Z,1.00
2023-01-17T03:30:24.839Z,1.00
2023-01-17T03:30:48.211Z,1.00
2023-01-17T03:31:14.467Z,1.00
2023-01-17T03:31:38.664Z,1.00
2023-01-17T03:32:01.359Z,1.00
2023-01-17T03:32:24.306Z,1.00
2023-01-17T03:32:47.189Z,1.00
2023-01-17T03:33:09.951Z,1.00
2023-01-17T03:33:32.639Z,1.00
2023-01-17T03:33:58.241Z,1.00
2023-01-17T03:34:21.009Z,1.00
2023-01-17T03:34:43.770Z,1.00
2023-01-17T03:35:07.722Z,1.00
2023-01-17T03:35:30.539Z,1.00
2023-01-17T03:35:54.677Z,1.00
2023-01-17T03:36:17.515Z,1.00
2023-01-17T03:36:40.298Z,1.00
2023-01-17T03:37:03.146Z,1.00
2023-01-17T03:37:25.933Z,1.00
2023-01-17T03:37:48.644Z,1.00
2023-01-17T03:38:11.417Z,1.00
2023-01-17T03:38:34.189Z,1.00
2023-01-17T03:38:56.958Z,1.00
2023-01-17T03:39:19.777Z,1.00
2023-01-17T03:39:42.563Z,1.00
2023-01-17T03:40:06.794Z,1.00
2023-01-17T03:40:29.548Z,1.00
2023-01-17T03:40:52.358Z,1.00
2023-01-17T03:41:15.077Z,1.00
2023-01-17T03:41:37.887Z,1.00
2023-01-17T03:42:03.368Z,1.00
2023-01-17T03:42:26.090Z,1.00
2023-01-17T03:42:51.454Z,1.00
2023-01-17T03:43:14.188Z,1.00
2023-01-17T03:43:37.012Z,1.00
2023-01-17T03:44:01.148Z,1.00
2023-01-17T03:44:23.873Z,1.00
2023-01-17T03:44:46.652Z,1.00
2023-01-17T03:45:10.888Z,1.00
2023-01-17T03:45:33.659Z,1.00
2023-01-17T03:46:02.525Z,1.00
2023-01-17T03:46:27.762Z,1.00
2023-01-17T03:46:52.099Z,1.00
2023-01-17T03:47:14.889Z,1.00
2023-01-17T03:47:37.615Z,1.00
2023-01-17T03:48:00.354Z,1.00
2023-01-17T03:48:23.113Z,1.00
2023-01-17T03:48:45.863Z,1.00
2023-01-17T03:49:09.344Z,1.00
2023-01-17T03:49:32.085Z,1.00
2023-01-17T03:49:54.863Z,1.00
2023-01-17T03:50:17.776Z,1.00
2023-01-17T03:50:40.586Z,1.00
2023-01-17T03:51:03.471Z,1.00
2023-01-17T03:51:26.261Z,1.00
2023-01-17T03:51:48.944Z,1.00
2023-01-17T03:52:11.703Z,1.00
2023-01-17T03:52:37.034Z,1.00
2023-01-17T03:52:59.856Z,1.00
2023-01-17T03:53:22.720Z,1.00
2023-01-17T03:53:47.104Z,1.00
2023-01-17T03:54:09.960Z,1.00
2023-01-17T03:54:32.779Z,1.00
2023-01-17T03:54:55.649Z,1.00
2023-01-17T03:55:19.529Z,1.00
2023-01-17T03:55:42.252Z,1.00
2023-01-17T03:56:05.583Z,1.00
2023-01-17T03:56:28.391Z,1.00
2023-01-17T03:56:51.179Z,1.00
2023-01-17T03:57:14.015Z,1.00
2023-01-17T03:57:36.820Z,1.00
2023-01-17T03:57:59.527Z,1.00
2023-01-17T03:58:22.330Z,1.00
2023-01-17T03:58:47.209Z,1.00
2023-01-17T03:59:12.239Z,1.00
2023-01-17T03:59:35.865Z,1.00
2023-01-17T03:59:58.696Z,1.00
2023-01-17T04:00:24.251Z,1.00
2023-01-17T04:00:47.107Z,1.00
2023-01-17T04:01:12.221Z,1.00
2023-01-17T04:01:35.041Z,1.00
2023-01-17T04:01:59.345Z,1.00
2023-01-17T04:02:22.340Z,1.00
2023-01-17T04:02:45.226Z,1.00
2023-01-17T04:03:08.007Z,1.00
2023-01-17T04:03:30.722Z,1.00
2023-01-17T04:03:54.108Z,1.00
2023-01-17T04:04:16.885Z,1.00
2023-01-17T04:04:39.584Z,1.00
2023-01-17T04:05:02.227Z,1.00
2023-01-17T04:05:25.053Z,1.00
2023-01-17T04:05:47.882Z,1.00
2023-01-17T04:06:10.543Z,1.00
2023-01-17T04:06:33.432Z,1.00
2023-01-17T04:06:56.163Z,1.00
2023-01-17T04:07:18.951Z,1.00
2023-01-17T04:07:41.931Z,1.00
2023-01-17T04:08:06.894Z,1.00
2023-01-17T04:08:30.885Z,1.00
2023-01-17T04:08:53.574Z,1.00
2023-01-17T04:09:16.394Z,1.00
2023-01-17T04:09:39.248Z,1.00
2023-01-17T04:10:02.050Z,1.00
2023-01-17T04:10:24.801Z,1.00
2023-01-17T04:10:47.541Z,1.00
2023-01-17T04:11:10.305Z,1.00
2023-01-17T04:11:33.049Z,1.00
2023-01-17T04:11:55.757Z,1.00
2023-01-17T04:12:18.553Z,1.00
2023-01-17T04:12:41.864Z,1.00
2023-01-17T04:13:04.669Z,1.00
2023-01-17T04:13:27.536Z,1.00
2023-01-17T04:13:50.250Z,1.00
2023-01-17T04:14:12.964Z,1.00
2023-01-17T04:14:35.719Z,1.00
2023-01-17T04:14:58.433Z,1.00
2023-01-17T04:15:21.452Z,1.00
2023-01-17T04:15:44.358Z,1.00
2023-01-17T04:16:08.579Z,1.00
2023-01-17T04:16:31.650Z,1.00
2023-01-17T04:16:54.535Z,1.00
2023-01-17T04:17:19.535Z,1.00
2023-01-17T04:17:42.307Z,1.00
2023-01-17T04:18:05.339Z,1.00
2023-01-17T04:18:28.040Z,1.00
2023-01-17T04:18:50.754Z,1.00
2023-01-17T04:19:13.446Z,1.00
2023-01-17T04:19:36.964Z,1.00
2023-01-17T04:19:59.654Z,1.00
2023-01-17T04:20:28.324Z,1.00
2023-01-17T04:20:51.703Z,1.00
2023-01-17T04:21:14.424Z,1.00
2023-01-17T04:21:37.143Z,1.00
2023-01-17T04:21:59.830Z,1.00
2023-01-17T04:22:22.675Z,1.00
2023-01-17T04:22:45.511Z,1.00
2023-01-17T04:23:08.324Z,1.00
2023-01-17T04:23:31.071Z,1.00
2023-01-17T04:23:54.477Z,1.00
2023-01-17T04:24:18.140Z,1.00
2023-01-17T04:24:41.069Z,1.00
2023-01-17T04:25:04.139Z,1.00
2023-01-17T04:25:26.999Z,1.00
2023-01-17T04:25:52.139Z,1.00
2023-01-17T04:26:14.931Z,1.00
2023-01-17T04:26:37.631Z,1.00
2023-01-17T04:27:00.387Z,1.00
2023-01-17T04:27:23.244Z,1.00
2023-01-17T04:27:46.089Z,1.00
2023-01-17T04:28:09.023Z,1.00
2023-01-17T04:28:32.279Z,1.00
2023-01-17T04:28:55.224Z,1.00
2023-01-17T04:29:21.174Z,1.00
2023-01-17T04:29:45.940Z,1.00
2023-01-17T04:30:11.866Z,1.00
2023-01-17T04:30:34.747Z,1.00
2023-01-17T04:30:59.254Z,1.00
2023-01-17T04:31:22.105Z,1.00
2023-01-17T04:31:44.847Z,1.00
2023-01-17T04:32:07.585Z,1.00
2023-01-17T04:32:31.863Z,1.00
2023-01-17T04:32:54.637Z,1.00
2023-01-17T04:33:17.365Z,1.00
2023-01-17T04:33:40.213Z,1.00
2023-01-17T04:34:03.490Z,1.00
2023-01-17T04:34:26.239Z,1.00
2023-01-17T04:34:49.052Z,1.00
2023-01-17T04:35:11.900Z,1.00
2023-01-17T04:35:34.819Z,1.00
2023-01-17T04:35:57.625Z,1.00
2023-01-17T04:36:20.371Z,1.00
2023-01-17T04:36:45.356Z,1.00
2023-01-17T04:37:08.175Z,1.00
2023-01-17T04:37:31.049Z,1.00
2023-01-17T04:37:53.925Z,1.00
2023-01-17T04:38:16.738Z,1.00
2023-01-17T04:38:39.645Z,1.00
2023-01-17T04:39:02.474Z,1.00
2023-01-17T04:39:25.314Z,1.00
2023-01-17T04:39:48.070Z,1.00
2023-01-17T04:40:12.340Z,1.00
2023-01-17T04:40:35.108Z,1.00
2023-01-17T04:40:57.938Z,1.00
2023-01-17T04:41:20.678Z,1.00
2023-01-17T04:41:44.239Z,1.00
2023-01-17T04:42:07.067Z,1.00
2023-01-17T04:42:29.848Z,1.00
2023-01-17T04:42:54.408Z,1.00
2023-01-17T04:43:17.146Z,1.00
2023-01-17T04:43:40.130Z,1.00
2023-01-17T04:44:03.129Z,1.00
2023-01-17T04:44:26.054Z,1.00
2023-01-17T04:44:48.981Z,1.00
2023-01-17T04:45:12.454Z,1.00
2023-01-17T04:45:35.217Z,1.00
2023-01-17T04:45:58.342Z,1.00
2023-01-17T04:46:21.261Z,1.00
2023-01-17T04:46:46.428Z,1.00
2023-01-17T04:47:09.246Z,1.00
2023-01-17T04:47:33.613Z,1.00
2023-01-17T04:47:56.350Z,1.00
2023-01-17T04:48:19.284Z,1.00
2023-01-17T04:48:42.154Z,1.00
2023-01-17T04:49:05.196Z,1.00
2023-01-17T04:49:27.985Z,1.00
2023-01-17T04:49:51.224Z,1.00
2023-01-17T04:50:13.951Z,1.00
2023-01-17T04:50:36.789Z,1.00
2023-01-17T04:51:01.047Z,1.00
2023-01-17T04:51:23.720Z,1.00
2023-01-17T04:51:46.503Z,1.00
2023-01-17T04:52:09.293Z,1.00
2023-01-17T04:52:32.275Z,1.00
2023-01-17T04:52:55.034Z,1.00
2023-01-17T04:53:17.864Z,1.00
2023-01-17T04:53:40.649Z,1.00
2023-01-17T04:54:04.653Z,1.00
2023-01-17T04:54:29.820Z,1.00
2023-01-17T04:54:53.299Z,1.00
2023-01-17T04:55:16.194Z,1.00
2023-01-17T04:55:38.956Z,1.00
2023-01-17T04:56:02.407Z,1.00
2023-01-17T04:56:25.130Z,1.00
2023-01-17T04:56:50.260Z,1.00
2023-01-17T04:57:13.135Z,1.00
2023-01-17T04:57:35.919Z,1.00
2023-01-17T04:57:58.656Z,1.00
2023-01-17T04:58:21.382Z,1.00
2023-01-17T04:58:44.694Z,1.00
2023-01-17T04:59:07.575Z,1.00
2023-01-17T04:59:30.308Z,1.00
2023-01-17T04:59:55.724Z,1.00
2023-01-17T05:00:21.274Z,1.00
2023-01-17T05:00:46.637Z,1.00
2023-01-17T05:01:10.042Z,1.00
2023-01-17T05:01:33.018Z,1.00
2023-01-17T05:01:55.807Z,1.00
2023-01-17T05:02:18.600Z,1.00
2023-01-17T05:02:42.901Z,1.00
2023-01-17T05:03:05.764Z,1.00
2023-01-17T05:03:29.774Z,1.00
2023-01-17T05:03:52.575Z,1.00
2023-01-17T05:04:15.354Z,1.00
2023-01-17T05:04:38.264Z,1.00
2023-01-17T05:05:00.974Z,1.00
2023-01-17T05:05:23.756Z,1.00
2023-01-17T05:05:46.514Z,1.00
2023-01-17T05:06:09.312Z,1.00
2023-01-17T05:06:32.029Z,1.00
2023-01-17T05:06:55.105Z,1.00
2023-01-17T05:07:17.945Z,1.00
2023-01-17T05:07:40.728Z,1.00
2023-01-17T05:08:03.691Z,1.00
2023-01-17T05:08:27.531Z,1.00
2023-01-17T05:08:50.273Z,1.00
2023-01-17T05:09:15.284Z,1.00
2023-01-17T05:09:38.125Z,1.00
2023-01-17T05:10:01.103Z,1.00
2023-01-17T05:10:24.144Z,1.00
2023-01-17T05:10:47.216Z,1.00
2023-01-17T05:11:10.262Z,1.00
2023-01-17T05:11:33.013Z,1.00
2023-01-17T05:11:58.523Z,1.00
2023-01-17T05:12:21.307Z,1.00
2023-01-17T05:12:44.148Z,1.00
2023-01-17T05:13:09.902Z,1.00
2023-01-17T05:13:32.703Z,1.00
2023-01-17T05:13:57.575Z,1.00
2023-01-17T05:14:20.342Z,1.00
2023-01-17T05:14:43.185Z,1.00
2023-01-17T05:15:07.701Z,1.00
2023-01-17T05:15:30.529Z,1.00
2023-01-17T05:15:55.755Z,1.00
2023-01-17T05:16:19.748Z,1.00
2023-01-17T05:16:45.293Z,1.00
2023-01-17T05:17:11.356Z,1.00
2023-01-17T05:17:34.186Z,1.00
2023-01-17T05:17:58.528Z,1.00
2023-01-17T05:18:21.369Z,1.00
2023-01-17T05:18:44.190Z,1.00
2023-01-17T05:19:06.980Z,1.00
2023-01-17T05:19:29.786Z,1.00
2023-01-17T05:19:52.654Z,1.00
2023-01-17T05:20:15.578Z,1.00
2023-01-17T05:20:38.511Z,1.00
2023-01-17T05:21:04.334Z,1.00
2023-01-17T05:21:30.720Z,1.00
2023-01-17T05:21:53.499Z,1.00
2023-01-17T05:22:16.342Z,1.00
2023-01-17T05:22:39.095Z,1.00
2023-01-17T05:23:01.856Z,1.00
2023-01-17T05:23:25.625Z,1.00
2023-01-17T05:23:48.580Z,1.00
2023-01-17T05:24:11.415Z,1.00
2023-01-17T05:24:34.174Z,1.00
2023-01-17T05:24:56.901Z,1.00
2023-01-17T05:25:19.659Z,1.00
2023-01-17T05:25:44.578Z,1.00
2023-01-17T05:26:07.461Z,1.00
2023-01-17T05:26:30.251Z,1.00
2023-01-17T05:26:55.028Z,1.00
2023-01-17T05:27:17.915Z,1.00
2023-01-17T05:27:40.647Z,1.00
2023-01-17T05:28:03.460Z,1.00
2023-01-17T05:28:26.340Z,1.00
2023-01-17T05:28:49.129Z,1.00
2023-01-17T05:29:11.895Z,1.00
2023-01-17T05:29:34.595Z,1.00
2023-01-17T05:29:57.338Z,1.00
2023-01-17T05:30:21.814Z,1.00
2023-01-17T05:30:44.625Z,1.00
2023-01-17T05:31:07.552Z,1.00
2023-01-17T05:31:30.614Z,1.00
2023-01-17T05:31:53.288Z,1.00
2023-01-17T05:32:18.645Z,1.00
2023-01-17T05:32:42.187Z,1.00
2023-01-17T05:33:06.483Z,1.00
2023-01-17T05:33:29.186Z,1.00
2023-01-17T05:33:51.910Z,1.00
2023-01-17T05:34:14.792Z,1.00
2023-01-17T05:34:38.719Z,1.00
2023-01-17T05:35:02.902Z,1.00
2023-01-17T05:35:27.005Z,1.00
2023-01-17T05:35:49.738Z,1.00
2023-01-17T05:36:12.536Z,1.00
2023-01-17T05:36:35.425Z,1.00
2023-01-17T05:36:58.225Z,1.00
2023-01-17T05:37:21.143Z,1.00
2023-01-17T05:37:49.178Z,1.00
2023-01-17T05:38:12.003Z,1.00
2023-01-17T05:38:35.937Z,1.00
2023-01-17T05:38:58.753Z,1.00
2023-01-17T05:39:21.670Z,1.00
2023-01-17T05:39:44.618Z,1.00
2023-01-17T05:40:10.873Z,1.00
2023-01-17T05:40:34.143Z,1.00
2023-01-17T05:40:59.009Z,1.00
2023-01-17T05:41:21.855Z,1.00
2023-01-17T05:41:44.842Z,1.00
2023-01-17T05:42:07.653Z,1.00
2023-01-17T05:42:30.373Z,1.00
2023-01-17T05:42:54.099Z,1.00
2023-01-17T05:43:16.809Z,1.00
2023-01-17T05:43:39.700Z,1.00
2023-01-17T05:44:02.433Z,1.00
2023-01-17T05:44:25.289Z,1.00
2023-01-17T05:44:48.035Z,1.00
2023-01-17T05:45:12.851Z,1.00
2023-01-17T05:45:36.599Z,1.00
2023-01-17T05:45:59.431Z,1.00
2023-01-17T05:46:22.358Z,1.00
2023-01-17T05:46:45.308Z,1.00
2023-01-17T05:47:08.139Z,1.00
2023-01-17T05:47:30.977Z,1.00
2023-01-17T05:47:56.791Z,1.00
2023-01-17T05:48:21.118Z,1.00
2023-01-17T05:48:43.913Z,1.00
2023-01-17T05:49:06.771Z,1.00
2023-01-17T05:49:29.499Z,1.00
2023-01-17T05:49:52.232Z,1.00
2023-01-17T05:50:16.355Z,1.00
2023-01-17T05:50:39.337Z,1.00
2023-01-17T05:51:02.207Z,1.00
2023-01-17T05:51:25.052Z,1.00